sensor_id;sensor_type;location;lat;lon;timestamp;P1;durP1;ratioP1;P2;durP2;ratioP2
64915;SDS011;51427;-27.442;153.014;2022-12-07T00:01:41;8.48;;;3.50;;
64915;SDS011;51427;-27.442;153.014;2022-12-07T00:04:11;11.10;;;3.38;;
64915;SDS011;51427;-27.442;153.014;2022-12-07T00:06:41;15.38;;;4.47;;
64915;SDS011;51427;-27.442;153.014;2022-12-07T00:09:11;10.98;;;3.55;;
64915;SDS011;51427;-27.442;153.014;2022-12-07T00:11:40;11.35;;;4.03;;
64915;SDS011;51427;-27.442;153.014;2022-12-07T00:14:11;11.13;;;3.92;;
64915;SDS011;51427;-27.442;153.014;2022-12-07T00:16:41;10.52;;;3.60;;
64915;SDS011;51427;-27.442;153.014;2022-12-07T00:19:09;11.05;;;3.50;;
64915;SDS011;51427;-27.442;153.014;2022-12-07T00:21:38;11.25;;;3.63;;
64915;SDS011;51427;-27.442;153.014;2022-12-07T00:24:06;14.80;;;4.13;;
64915;SDS011;51427;-27.442;153.014;2022-12-07T00:26:35;10.40;;;3.78;;
64915;SDS011;51427;-27.442;153.014;2022-12-07T00:29:19;14.23;;;4.38;;
64915;SDS011;51427;-27.442;153.014;2022-12-07T00:31:49;13.15;;;3.60;;
64915;SDS011;51427;-27.442;153.014;2022-12-07T00:34:19;10.38;;;4.05;;
64915;SDS011;51427;-27.442;153.014;2022-12-07T00:36:48;11.82;;;3.40;;
64915;SDS011;51427;-27.442;153.014;2022-12-07T00:39:16;10.77;;;4.05;;
64915;SDS011;51427;-27.442;153.014;2022-12-07T00:41:44;14.02;;;3.80;;
64915;SDS011;51427;-27.442;153.014;2022-12-07T00:44:11;12.90;;;4.05;;
64915;SDS011;51427;-27.442;153.014;2022-12-07T00:46:39;9.50;;;3.78;;
64915;SDS011;51427;-27.442;153.014;2022-12-07T00:49:07;13.75;;;4.25;;
64915;SDS011;51427;-27.442;153.014;2022-12-07T00:51:34;9.90;;;3.83;;
64915;SDS011;51427;-27.442;153.014;2022-12-07T00:54:02;10.30;;;3.25;;
64915;SDS011;51427;-27.442;153.014;2022-12-07T00:56:30;10.05;;;3.85;;
64915;SDS011;51427;-27.442;153.014;2022-12-07T00:59:01;11.00;;;3.83;;
64915;SDS011;51427;-27.442;153.014;2022-12-07T01:01:31;9.35;;;3.67;;
64915;SDS011;51427;-27.442;153.014;2022-12-07T01:04:00;9.60;;;3.47;;
64915;SDS011;51427;-27.442;153.014;2022-12-07T01:06:29;9.98;;;3.72;;
64915;SDS011;51427;-27.442;153.014;2022-12-07T01:08:57;9.77;;;3.50;;
64915;SDS011;51427;-27.442;153.014;2022-12-07T01:11:26;13.10;;;4.20;;
64915;SDS011;51427;-27.442;153.014;2022-12-07T01:13:56;7.63;;;3.30;;
64915;SDS011;51427;-27.442;153.014;2022-12-07T01:16:25;12.60;;;3.90;;
64915;SDS011;51427;-27.442;153.014;2022-12-07T01:18:56;10.52;;;3.53;;
64915;SDS011;51427;-27.442;153.014;2022-12-07T01:21:28;13.15;;;3.83;;
64915;SDS011;51427;-27.442;153.014;2022-12-07T01:24:04;9.55;;;3.40;;
64915;SDS011;51427;-27.442;153.014;2022-12-07T01:26:35;11.70;;;3.65;;
64915;SDS011;51427;-27.442;153.014;2022-12-07T01:29:03;10.73;;;3.95;;
64915;SDS011;51427;-27.442;153.014;2022-12-07T01:31:31;12.30;;;4.38;;
64915;SDS011;51427;-27.442;153.014;2022-12-07T01:33:59;10.93;;;3.70;;
64915;SDS011;51427;-27.442;153.014;2022-12-07T01:36:31;8.10;;;3.80;;
64915;SDS011;51427;-27.442;153.014;2022-12-07T01:39:02;11.80;;;3.88;;
64915;SDS011;51427;-27.442;153.014;2022-12-07T01:41:33;11.20;;;3.90;;
64915;SDS011;51427;-27.442;153.014;2022-12-07T01:44:10;11.38;;;3.65;;
64915;SDS011;51427;-27.442;153.014;2022-12-07T01:46:56;13.02;;;4.07;;
64915;SDS011;51427;-27.442;153.014;2022-12-07T01:52:01;10.80;;;3.70;;
64915;SDS011;51427;-27.442;153.014;2022-12-07T01:54:30;6.70;;;3.70;;
64915;SDS011;51427;-27.442;153.014;2022-12-07T01:56:59;9.70;;;3.70;;
64915;SDS011;51427;-27.442;153.014;2022-12-07T01:59:27;9.25;;;3.60;;
64915;SDS011;51427;-27.442;153.014;2022-12-07T02:01:55;11.20;;;3.72;;
64915;SDS011;51427;-27.442;153.014;2022-12-07T02:04:23;7.93;;;3.83;;
64915;SDS011;51427;-27.442;153.014;2022-12-07T02:06:51;10.98;;;4.03;;
64915;SDS011;51427;-27.442;153.014;2022-12-07T02:09:20;12.90;;;3.97;;
64915;SDS011;51427;-27.442;153.014;2022-12-07T02:11:47;10.15;;;3.58;;
64915;SDS011;51427;-27.442;153.014;2022-12-07T02:14:15;10.57;;;4.22;;
64915;SDS011;51427;-27.442;153.014;2022-12-07T02:16:47;11.35;;;3.60;;
64915;SDS011;51427;-27.442;153.014;2022-12-07T02:28:19;13.50;;;4.18;;
64915;SDS011;51427;-27.442;153.014;2022-12-07T02:30:52;13.82;;;4.03;;
64915;SDS011;51427;-27.442;153.014;2022-12-07T02:33:26;9.13;;;3.60;;
64915;SDS011;51427;-27.442;153.014;2022-12-07T02:36:02;11.13;;;3.78;;
64915;SDS011;51427;-27.442;153.014;2022-12-07T02:41:43;10.23;;;3.30;;
64915;SDS011;51427;-27.442;153.014;2022-12-07T02:44:20;11.52;;;3.47;;
64915;SDS011;51427;-27.442;153.014;2022-12-07T02:46:54;8.93;;;3.33;;
64915;SDS011;51427;-27.442;153.014;2022-12-07T02:52:31;9.43;;;3.80;;
64915;SDS011;51427;-27.442;153.014;2022-12-07T02:54:58;12.63;;;3.90;;
64915;SDS011;51427;-27.442;153.014;2022-12-07T02:57:42;8.35;;;3.40;;
64915;SDS011;51427;-27.442;153.014;2022-12-07T03:00:22;11.55;;;4.15;;
64915;SDS011;51427;-27.442;153.014;2022-12-07T03:02:55;9.35;;;3.75;;
64915;SDS011;51427;-27.442;153.014;2022-12-07T03:11:03;11.30;;;3.53;;
64915;SDS011;51427;-27.442;153.014;2022-12-07T03:18:37;9.32;;;3.88;;
64915;SDS011;51427;-27.442;153.014;2022-12-07T03:21:14;11.48;;;3.70;;
64915;SDS011;51427;-27.442;153.014;2022-12-07T03:23:53;11.63;;;3.80;;
64915;SDS011;51427;-27.442;153.014;2022-12-07T03:26:36;14.10;;;3.88;;
64915;SDS011;51427;-27.442;153.014;2022-12-07T03:29:08;10.30;;;3.60;;
64915;SDS011;51427;-27.442;153.014;2022-12-07T03:31:44;9.63;;;3.55;;
64915;SDS011;51427;-27.442;153.014;2022-12-07T03:37:44;10.05;;;3.40;;
64915;SDS011;51427;-27.442;153.014;2022-12-07T03:40:40;10.43;;;3.90;;
64915;SDS011;51427;-27.442;153.014;2022-12-07T03:43:07;6.45;;;3.20;;
64915;SDS011;51427;-27.442;153.014;2022-12-07T03:45:44;14.75;;;4.30;;
64915;SDS011;51427;-27.442;153.014;2022-12-07T03:48:27;11.43;;;3.78;;
64915;SDS011;51427;-27.442;153.014;2022-12-07T03:53:36;10.25;;;3.85;;
64915;SDS011;51427;-27.442;153.014;2022-12-07T03:56:08;8.48;;;3.78;;
64915;SDS011;51427;-27.442;153.014;2022-12-07T03:58:37;10.68;;;3.88;;
64915;SDS011;51427;-27.442;153.014;2022-12-07T04:01:06;11.75;;;3.72;;
64915;SDS011;51427;-27.442;153.014;2022-12-07T04:03:34;12.57;;;3.60;;
64915;SDS011;51427;-27.442;153.014;2022-12-07T04:06:01;13.40;;;4.13;;
64915;SDS011;51427;-27.442;153.014;2022-12-07T04:08:29;13.82;;;4.03;;
64915;SDS011;51427;-27.442;153.014;2022-12-07T04:10:57;13.10;;;4.22;;
64915;SDS011;51427;-27.442;153.014;2022-12-07T04:13:24;10.50;;;3.75;;
64915;SDS011;51427;-27.442;153.014;2022-12-07T04:15:52;10.98;;;4.18;;
64915;SDS011;51427;-27.442;153.014;2022-12-07T04:18:20;14.10;;;4.28;;
64915;SDS011;51427;-27.442;153.014;2022-12-07T04:20:47;7.45;;;3.67;;
64915;SDS011;51427;-27.442;153.014;2022-12-07T04:23:15;11.80;;;3.88;;
64915;SDS011;51427;-27.442;153.014;2022-12-07T04:25:43;9.35;;;3.92;;
64915;SDS011;51427;-27.442;153.014;2022-12-07T04:28:10;8.52;;;3.53;;
64915;SDS011;51427;-27.442;153.014;2022-12-07T04:30:38;12.80;;;3.60;;
64915;SDS011;51427;-27.442;153.014;2022-12-07T04:33:09;9.60;;;3.53;;
64915;SDS011;51427;-27.442;153.014;2022-12-07T04:35:36;9.13;;;3.47;;
64915;SDS011;51427;-27.442;153.014;2022-12-07T04:38:04;9.55;;;4.00;;
64915;SDS011;51427;-27.442;153.014;2022-12-07T04:40:32;12.50;;;4.00;;
64915;SDS011;51427;-27.442;153.014;2022-12-07T04:42:59;13.10;;;4.15;;
64915;SDS011;51427;-27.442;153.014;2022-12-07T04:45:27;11.02;;;4.05;;
64915;SDS011;51427;-27.442;153.014;2022-12-07T04:47:54;11.23;;;4.20;;
64915;SDS011;51427;-27.442;153.014;2022-12-07T04:50:22;11.52;;;3.90;;
64915;SDS011;51427;-27.442;153.014;2022-12-07T04:52:50;10.93;;;4.10;;
64915;SDS011;51427;-27.442;153.014;2022-12-07T04:55:17;11.48;;;3.70;;
64915;SDS011;51427;-27.442;153.014;2022-12-07T04:57:45;11.15;;;4.10;;
64915;SDS011;51427;-27.442;153.014;2022-12-07T05:00:12;13.07;;;4.00;;
64915;SDS011;51427;-27.442;153.014;2022-12-07T05:02:40;12.80;;;3.80;;
64915;SDS011;51427;-27.442;153.014;2022-12-07T05:05:08;15.07;;;4.00;;
64915;SDS011;51427;-27.442;153.014;2022-12-07T05:07:35;11.20;;;3.40;;
64915;SDS011;51427;-27.442;153.014;2022-12-07T05:10:03;13.27;;;3.95;;
64915;SDS011;51427;-27.442;153.014;2022-12-07T05:12:31;12.95;;;3.92;;
64915;SDS011;51427;-27.442;153.014;2022-12-07T05:14:59;7.82;;;3.25;;
64915;SDS011;51427;-27.442;153.014;2022-12-07T05:17:26;11.07;;;3.70;;
64915;SDS011;51427;-27.442;153.014;2022-12-07T05:19:54;12.18;;;3.90;;
64915;SDS011;51427;-27.442;153.014;2022-12-07T05:22:21;5.80;;;3.17;;
64915;SDS011;51427;-27.442;153.014;2022-12-07T05:24:54;13.30;;;3.63;;
64915;SDS011;51427;-27.442;153.014;2022-12-07T05:27:22;11.60;;;3.50;;
64915;SDS011;51427;-27.442;153.014;2022-12-07T05:29:50;8.55;;;3.63;;
64915;SDS011;51427;-27.442;153.014;2022-12-07T05:32:18;9.60;;;3.78;;
64915;SDS011;51427;-27.442;153.014;2022-12-07T05:34:46;7.70;;;3.30;;
64915;SDS011;51427;-27.442;153.014;2022-12-07T05:37:13;11.38;;;3.75;;
64915;SDS011;51427;-27.442;153.014;2022-12-07T05:39:40;11.23;;;3.97;;
64915;SDS011;51427;-27.442;153.014;2022-12-07T05:42:09;11.70;;;4.20;;
64915;SDS011;51427;-27.442;153.014;2022-12-07T05:44:40;7.22;;;3.15;;
64915;SDS011;51427;-27.442;153.014;2022-12-07T05:47:09;10.98;;;4.30;;
64915;SDS011;51427;-27.442;153.014;2022-12-07T05:49:37;14.60;;;3.92;;
64915;SDS011;51427;-27.442;153.014;2022-12-07T05:52:04;8.77;;;3.45;;
64915;SDS011;51427;-27.442;153.014;2022-12-07T05:54:32;10.95;;;4.00;;
64915;SDS011;51427;-27.442;153.014;2022-12-07T05:56:59;9.65;;;3.65;;
64915;SDS011;51427;-27.442;153.014;2022-12-07T05:59:27;10.85;;;3.65;;
64915;SDS011;51427;-27.442;153.014;2022-12-07T06:01:56;10.63;;;4.13;;
64915;SDS011;51427;-27.442;153.014;2022-12-07T06:04:26;10.48;;;3.78;;
64915;SDS011;51427;-27.442;153.014;2022-12-07T06:06:55;13.73;;;4.28;;
64915;SDS011;51427;-27.442;153.014;2022-12-07T06:09:22;10.48;;;4.00;;
64915;SDS011;51427;-27.442;153.014;2022-12-07T06:11:51;12.88;;;3.90;;
64915;SDS011;51427;-27.442;153.014;2022-12-07T06:14:37;10.82;;;3.97;;
64915;SDS011;51427;-27.442;153.014;2022-12-07T06:17:04;13.00;;;3.65;;
64915;SDS011;51427;-27.442;153.014;2022-12-07T06:19:32;10.75;;;4.07;;
64915;SDS011;51427;-27.442;153.014;2022-12-07T06:22:00;14.73;;;4.80;;
64915;SDS011;51427;-27.442;153.014;2022-12-07T06:24:30;12.40;;;4.10;;
64915;SDS011;51427;-27.442;153.014;2022-12-07T06:26:58;11.43;;;3.75;;
64915;SDS011;51427;-27.442;153.014;2022-12-07T06:29:26;14.07;;;4.22;;
64915;SDS011;51427;-27.442;153.014;2022-12-07T06:31:53;10.88;;;3.88;;
64915;SDS011;51427;-27.442;153.014;2022-12-07T06:34:21;10.70;;;3.88;;
64915;SDS011;51427;-27.442;153.014;2022-12-07T06:36:50;9.35;;;3.60;;
64915;SDS011;51427;-27.442;153.014;2022-12-07T06:39:19;11.15;;;4.30;;
64915;SDS011;51427;-27.442;153.014;2022-12-07T06:41:53;12.00;;;4.00;;
64915;SDS011;51427;-27.442;153.014;2022-12-07T06:44:22;10.88;;;3.83;;
64915;SDS011;51427;-27.442;153.014;2022-12-07T06:46:50;11.63;;;3.60;;
64915;SDS011;51427;-27.442;153.014;2022-12-07T06:49:17;11.55;;;4.15;;
64915;SDS011;51427;-27.442;153.014;2022-12-07T06:51:45;13.82;;;4.63;;
64915;SDS011;51427;-27.442;153.014;2022-12-07T06:54:13;17.80;;;5.97;;
64915;SDS011;51427;-27.442;153.014;2022-12-07T06:56:41;14.45;;;4.82;;
64915;SDS011;51427;-27.442;153.014;2022-12-07T06:59:09;14.98;;;4.00;;
64915;SDS011;51427;-27.442;153.014;2022-12-07T07:01:36;14.05;;;4.45;;
64915;SDS011;51427;-27.442;153.014;2022-12-07T07:04:03;12.88;;;4.50;;
64915;SDS011;51427;-27.442;153.014;2022-12-07T07:06:31;9.35;;;3.53;;
64915;SDS011;51427;-27.442;153.014;2022-12-07T07:08:58;7.20;;;3.85;;
64915;SDS011;51427;-27.442;153.014;2022-12-07T07:11:26;14.35;;;4.00;;
64915;SDS011;51427;-27.442;153.014;2022-12-07T07:13:53;12.63;;;4.43;;
64915;SDS011;51427;-27.442;153.014;2022-12-07T07:16:23;11.95;;;4.45;;
64915;SDS011;51427;-27.442;153.014;2022-12-07T07:18:50;14.23;;;3.80;;
64915;SDS011;51427;-27.442;153.014;2022-12-07T07:21:17;8.48;;;3.88;;
64915;SDS011;51427;-27.442;153.014;2022-12-07T07:23:44;11.90;;;4.13;;
64915;SDS011;51427;-27.442;153.014;2022-12-07T07:26:11;10.18;;;3.85;;
64915;SDS011;51427;-27.442;153.014;2022-12-07T07:28:39;11.63;;;3.97;;
64915;SDS011;51427;-27.442;153.014;2022-12-07T07:31:06;13.75;;;4.10;;
64915;SDS011;51427;-27.442;153.014;2022-12-07T07:33:33;10.30;;;4.00;;
64915;SDS011;51427;-27.442;153.014;2022-12-07T07:36:00;10.95;;;3.67;;
64915;SDS011;51427;-27.442;153.014;2022-12-07T07:38:27;12.77;;;4.70;;
64915;SDS011;51427;-27.442;153.014;2022-12-07T07:40:55;16.30;;;4.18;;
64915;SDS011;51427;-27.442;153.014;2022-12-07T07:43:22;11.80;;;4.40;;
64915;SDS011;51427;-27.442;153.014;2022-12-07T07:45:49;12.40;;;4.30;;
64915;SDS011;51427;-27.442;153.014;2022-12-07T07:48:16;10.65;;;4.03;;
64915;SDS011;51427;-27.442;153.014;2022-12-07T07:50:43;10.25;;;4.35;;
64915;SDS011;51427;-27.442;153.014;2022-12-07T07:53:11;8.70;;;4.07;;
64915;SDS011;51427;-27.442;153.014;2022-12-07T07:55:38;12.07;;;3.80;;
64915;SDS011;51427;-27.442;153.014;2022-12-07T07:58:05;12.50;;;4.55;;
64915;SDS011;51427;-27.442;153.014;2022-12-07T08:00:32;14.15;;;4.18;;
64915;SDS011;51427;-27.442;153.014;2022-12-07T08:02:59;13.77;;;4.30;;
64915;SDS011;51427;-27.442;153.014;2022-12-07T08:05:26;12.43;;;4.40;;
64915;SDS011;51427;-27.442;153.014;2022-12-07T08:07:54;14.48;;;4.88;;
64915;SDS011;51427;-27.442;153.014;2022-12-07T08:10:21;14.57;;;4.53;;
64915;SDS011;51427;-27.442;153.014;2022-12-07T08:12:48;9.82;;;4.47;;
64915;SDS011;51427;-27.442;153.014;2022-12-07T08:15:35;14.32;;;4.60;;
64915;SDS011;51427;-27.442;153.014;2022-12-07T08:18:04;11.13;;;4.60;;
64915;SDS011;51427;-27.442;153.014;2022-12-07T08:20:32;11.25;;;4.40;;
64915;SDS011;51427;-27.442;153.014;2022-12-07T08:23:00;11.10;;;4.43;;
64915;SDS011;51427;-27.442;153.014;2022-12-07T08:25:28;14.82;;;4.20;;
64915;SDS011;51427;-27.442;153.014;2022-12-07T08:27:56;10.98;;;4.72;;
64915;SDS011;51427;-27.442;153.014;2022-12-07T08:30:23;14.73;;;4.18;;
64915;SDS011;51427;-27.442;153.014;2022-12-07T08:32:51;19.20;;;4.13;;
64915;SDS011;51427;-27.442;153.014;2022-12-07T08:35:18;15.13;;;4.70;;
64915;SDS011;51427;-27.442;153.014;2022-12-07T08:37:45;10.40;;;4.60;;
64915;SDS011;51427;-27.442;153.014;2022-12-07T08:40:13;11.95;;;4.53;;
64915;SDS011;51427;-27.442;153.014;2022-12-07T08:42:42;12.45;;;4.10;;
64915;SDS011;51427;-27.442;153.014;2022-12-07T08:45:11;12.93;;;4.13;;
64915;SDS011;51427;-27.442;153.014;2022-12-07T08:47:44;11.70;;;3.97;;
64915;SDS011;51427;-27.442;153.014;2022-12-07T08:50:18;9.60;;;4.15;;
64915;SDS011;51427;-27.442;153.014;2022-12-07T08:52:48;12.27;;;4.00;;
64915;SDS011;51427;-27.442;153.014;2022-12-07T08:55:19;12.52;;;5.38;;
64915;SDS011;51427;-27.442;153.014;2022-12-07T08:57:46;13.73;;;4.35;;
64915;SDS011;51427;-27.442;153.014;2022-12-07T09:00:14;12.48;;;4.32;;
64915;SDS011;51427;-27.442;153.014;2022-12-07T09:02:43;13.27;;;4.25;;
64915;SDS011;51427;-27.442;153.014;2022-12-07T09:05:11;11.00;;;3.67;;
64915;SDS011;51427;-27.442;153.014;2022-12-07T09:07:40;12.05;;;4.07;;
64915;SDS011;51427;-27.442;153.014;2022-12-07T09:10:10;15.80;;;4.70;;
64915;SDS011;51427;-27.442;153.014;2022-12-07T09:12:37;14.13;;;4.25;;
64915;SDS011;51427;-27.442;153.014;2022-12-07T09:15:05;12.43;;;3.95;;
64915;SDS011;51427;-27.442;153.014;2022-12-07T09:17:33;11.18;;;4.53;;
64915;SDS011;51427;-27.442;153.014;2022-12-07T09:20:02;14.48;;;4.53;;
64915;SDS011;51427;-27.442;153.014;2022-12-07T09:22:31;11.55;;;4.40;;
64915;SDS011;51427;-27.442;153.014;2022-12-07T09:24:59;15.90;;;5.28;;
64915;SDS011;51427;-27.442;153.014;2022-12-07T09:27:27;12.30;;;4.55;;
64915;SDS011;51427;-27.442;153.014;2022-12-07T09:29:55;14.75;;;4.18;;
64915;SDS011;51427;-27.442;153.014;2022-12-07T09:32:22;11.70;;;4.38;;
64915;SDS011;51427;-27.442;153.014;2022-12-07T09:34:50;14.07;;;4.78;;
64915;SDS011;51427;-27.442;153.014;2022-12-07T09:37:17;14.57;;;4.43;;
64915;SDS011;51427;-27.442;153.014;2022-12-07T09:39:44;10.15;;;4.13;;
64915;SDS011;51427;-27.442;153.014;2022-12-07T09:42:18;17.65;;;4.35;;
64915;SDS011;51427;-27.442;153.014;2022-12-07T09:45:04;13.80;;;4.72;;
64915;SDS011;51427;-27.442;153.014;2022-12-07T09:47:33;9.98;;;4.47;;
64915;SDS011;51427;-27.442;153.014;2022-12-07T09:50:05;15.50;;;4.68;;
64915;SDS011;51427;-27.442;153.014;2022-12-07T09:52:42;11.20;;;4.78;;
64915;SDS011;51427;-27.442;153.014;2022-12-07T09:55:14;11.15;;;4.60;;
64915;SDS011;51427;-27.442;153.014;2022-12-07T09:57:44;17.27;;;5.47;;
64915;SDS011;51427;-27.442;153.014;2022-12-07T10:00:13;12.00;;;5.20;;
64915;SDS011;51427;-27.442;153.014;2022-12-07T10:02:43;13.40;;;4.72;;
64915;SDS011;51427;-27.442;153.014;2022-12-07T10:05:14;14.73;;;5.13;;
64915;SDS011;51427;-27.442;153.014;2022-12-07T10:07:45;13.45;;;4.88;;
64915;SDS011;51427;-27.442;153.014;2022-12-07T10:10:15;15.38;;;5.68;;
64915;SDS011;51427;-27.442;153.014;2022-12-07T10:13:03;14.10;;;5.00;;
64915;SDS011;51427;-27.442;153.014;2022-12-07T10:15:53;13.95;;;5.57;;
64915;SDS011;51427;-27.442;153.014;2022-12-07T10:20:48;15.50;;;5.40;;
64915;SDS011;51427;-27.442;153.014;2022-12-07T10:23:25;17.15;;;4.72;;
64915;SDS011;51427;-27.442;153.014;2022-12-07T10:25:53;16.45;;;5.35;;
64915;SDS011;51427;-27.442;153.014;2022-12-07T10:28:21;13.23;;;5.03;;
64915;SDS011;51427;-27.442;153.014;2022-12-07T10:30:49;16.45;;;5.25;;
64915;SDS011;51427;-27.442;153.014;2022-12-07T10:36:15;17.33;;;5.47;;
64915;SDS011;51427;-27.442;153.014;2022-12-07T10:39:03;16.60;;;5.28;;
64915;SDS011;51427;-27.442;153.014;2022-12-07T10:42:03;14.55;;;5.40;;
64915;SDS011;51427;-27.442;153.014;2022-12-07T10:44:32;12.80;;;5.03;;
64915;SDS011;51427;-27.442;153.014;2022-12-07T10:55:22;16.13;;;4.72;;
64915;SDS011;51427;-27.442;153.014;2022-12-07T11:11:58;18.52;;;4.95;;
64915;SDS011;51427;-27.442;153.014;2022-12-07T11:17:14;21.10;;;4.75;;
64915;SDS011;51427;-27.442;153.014;2022-12-07T11:20:13;16.00;;;5.00;;
64915;SDS011;51427;-27.442;153.014;2022-12-07T11:25:34;14.60;;;4.97;;
64915;SDS011;51427;-27.442;153.014;2022-12-07T11:33:27;19.92;;;4.93;;
64915;SDS011;51427;-27.442;153.014;2022-12-07T11:38:53;14.05;;;4.55;;
64915;SDS011;51427;-27.442;153.014;2022-12-07T11:41:25;12.95;;;4.40;;
64915;SDS011;51427;-27.442;153.014;2022-12-07T11:44:01;17.30;;;5.72;;
64915;SDS011;51427;-27.442;153.014;2022-12-07T11:46:47;17.42;;;5.07;;
64915;SDS011;51427;-27.442;153.014;2022-12-07T11:49:21;13.40;;;4.72;;
64915;SDS011;51427;-27.442;153.014;2022-12-07T11:52:06;11.65;;;4.55;;
64915;SDS011;51427;-27.442;153.014;2022-12-07T11:55:00;16.33;;;4.45;;
64915;SDS011;51427;-27.442;153.014;2022-12-07T11:57:44;20.15;;;5.40;;
64915;SDS011;51427;-27.442;153.014;2022-12-07T12:00:16;13.00;;;4.38;;
64915;SDS011;51427;-27.442;153.014;2022-12-07T12:02:49;16.20;;;4.53;;
64915;SDS011;51427;-27.442;153.014;2022-12-07T12:05:19;14.98;;;5.53;;
64915;SDS011;51427;-27.442;153.014;2022-12-07T12:07:55;18.67;;;5.43;;
64915;SDS011;51427;-27.442;153.014;2022-12-07T12:13:20;13.18;;;5.07;;
64915;SDS011;51427;-27.442;153.014;2022-12-07T12:24:48;19.98;;;5.30;;
64915;SDS011;51427;-27.442;153.014;2022-12-07T12:27:29;17.42;;;5.85;;
64915;SDS011;51427;-27.442;153.014;2022-12-07T12:29:59;18.88;;;7.10;;
64915;SDS011;51427;-27.442;153.014;2022-12-07T12:32:34;16.92;;;6.55;;
64915;SDS011;51427;-27.442;153.014;2022-12-07T12:37:54;18.00;;;5.78;;
64915;SDS011;51427;-27.442;153.014;2022-12-07T12:42:57;19.52;;;6.70;;
64915;SDS011;51427;-27.442;153.014;2022-12-07T12:45:31;21.10;;;6.10;;
64915;SDS011;51427;-27.442;153.014;2022-12-07T12:54:05;21.40;;;6.13;;
64915;SDS011;51427;-27.442;153.014;2022-12-07T12:57:27;15.25;;;6.50;;
64915;SDS011;51427;-27.442;153.014;2022-12-07T13:02:22;13.90;;;6.32;;
64915;SDS011;51427;-27.442;153.014;2022-12-07T13:10:22;16.55;;;6.70;;
64915;SDS011;51427;-27.442;153.014;2022-12-07T13:26:04;11.63;;;5.15;;
64915;SDS011;51427;-27.442;153.014;2022-12-07T13:28:41;12.10;;;5.35;;
64915;SDS011;51427;-27.442;153.014;2022-12-07T13:33:44;13.45;;;4.85;;
64915;SDS011;51427;-27.442;153.014;2022-12-07T13:36:16;12.93;;;5.65;;
64915;SDS011;51427;-27.442;153.014;2022-12-07T13:38:53;12.90;;;5.03;;
64915;SDS011;51427;-27.442;153.014;2022-12-07T13:41:23;9.98;;;4.80;;
64915;SDS011;51427;-27.442;153.014;2022-12-07T13:44:12;14.10;;;5.47;;
64915;SDS011;51427;-27.442;153.014;2022-12-07T13:46:49;14.23;;;5.32;;
64915;SDS011;51427;-27.442;153.014;2022-12-07T13:49:59;13.13;;;5.60;;
64915;SDS011;51427;-27.442;153.014;2022-12-07T13:52:29;13.82;;;5.10;;
64915;SDS011;51427;-27.442;153.014;2022-12-07T13:57:30;12.07;;;4.78;;
64915;SDS011;51427;-27.442;153.014;2022-12-07T14:00:01;10.15;;;5.03;;
64915;SDS011;51427;-27.442;153.014;2022-12-07T14:02:33;10.63;;;5.25;;
64915;SDS011;51427;-27.442;153.014;2022-12-07T14:05:13;10.38;;;4.35;;
64915;SDS011;51427;-27.442;153.014;2022-12-07T14:07:56;8.25;;;4.43;;
64915;SDS011;51427;-27.442;153.014;2022-12-07T14:10:53;9.32;;;4.38;;
64915;SDS011;51427;-27.442;153.014;2022-12-07T14:13:32;11.50;;;4.97;;
64915;SDS011;51427;-27.442;153.014;2022-12-07T14:18:53;12.07;;;4.72;;
64915;SDS011;51427;-27.442;153.014;2022-12-07T14:21:23;11.00;;;5.25;;
64915;SDS011;51427;-27.442;153.014;2022-12-07T14:24:08;9.48;;;4.78;;
64915;SDS011;51427;-27.442;153.014;2022-12-07T14:26:38;14.20;;;4.68;;
64915;SDS011;51427;-27.442;153.014;2022-12-07T14:32:38;11.77;;;4.88;;
64915;SDS011;51427;-27.442;153.014;2022-12-07T14:37:30;9.43;;;4.72;;
64915;SDS011;51427;-27.442;153.014;2022-12-07T14:39:57;9.48;;;4.93;;
64915;SDS011;51427;-27.442;153.014;2022-12-07T14:42:26;9.75;;;4.95;;
64915;SDS011;51427;-27.442;153.014;2022-12-07T14:44:55;11.93;;;5.15;;
64915;SDS011;51427;-27.442;153.014;2022-12-07T14:47:24;10.98;;;4.32;;
64915;SDS011;51427;-27.442;153.014;2022-12-07T14:49:52;10.73;;;4.45;;
64915;SDS011;51427;-27.442;153.014;2022-12-07T14:52:21;8.65;;;4.80;;
64915;SDS011;51427;-27.442;153.014;2022-12-07T14:54:51;10.30;;;4.57;;
64915;SDS011;51427;-27.442;153.014;2022-12-07T14:57:18;9.55;;;4.90;;
64915;SDS011;51427;-27.442;153.014;2022-12-07T14:59:45;9.60;;;4.70;;
64915;SDS011;51427;-27.442;153.014;2022-12-07T15:02:13;11.55;;;4.90;;
64915;SDS011;51427;-27.442;153.014;2022-12-07T15:04:42;12.45;;;4.47;;
64915;SDS011;51427;-27.442;153.014;2022-12-07T15:07:12;10.82;;;4.35;;
64915;SDS011;51427;-27.442;153.014;2022-12-07T15:09:46;8.35;;;4.15;;
64915;SDS011;51427;-27.442;153.014;2022-12-07T15:12:13;7.80;;;4.35;;
64915;SDS011;51427;-27.442;153.014;2022-12-07T15:14:41;9.63;;;4.35;;
64915;SDS011;51427;-27.442;153.014;2022-12-07T15:17:09;9.00;;;4.00;;
64915;SDS011;51427;-27.442;153.014;2022-12-07T15:19:40;9.02;;;4.40;;
64915;SDS011;51427;-27.442;153.014;2022-12-07T15:22:08;8.25;;;4.68;;
64915;SDS011;51427;-27.442;153.014;2022-12-07T15:24:36;6.57;;;3.88;;
64915;SDS011;51427;-27.442;153.014;2022-12-07T15:27:04;7.55;;;4.63;;
64915;SDS011;51427;-27.442;153.014;2022-12-07T15:29:31;12.73;;;4.45;;
64915;SDS011;51427;-27.442;153.014;2022-12-07T15:31:58;12.07;;;5.35;;
64915;SDS011;51427;-27.442;153.014;2022-12-07T15:34:26;13.65;;;5.90;;
64915;SDS011;51427;-27.442;153.014;2022-12-07T15:36:54;10.57;;;5.60;;
64915;SDS011;51427;-27.442;153.014;2022-12-07T15:39:21;12.23;;;6.40;;
64915;SDS011;51427;-27.442;153.014;2022-12-07T15:41:49;12.25;;;6.20;;
64915;SDS011;51427;-27.442;153.014;2022-12-07T15:44:16;14.43;;;6.78;;
64915;SDS011;51427;-27.442;153.014;2022-12-07T15:47:01;15.88;;;6.68;;
64915;SDS011;51427;-27.442;153.014;2022-12-07T15:49:30;10.82;;;6.22;;
64915;SDS011;51427;-27.442;153.014;2022-12-07T15:51:57;13.77;;;6.32;;
64915;SDS011;51427;-27.442;153.014;2022-12-07T15:54:25;17.17;;;6.82;;
64915;SDS011;51427;-27.442;153.014;2022-12-07T15:56:54;13.05;;;6.57;;
64915;SDS011;51427;-27.442;153.014;2022-12-07T15:59:22;14.38;;;6.32;;
64915;SDS011;51427;-27.442;153.014;2022-12-07T16:01:50;12.40;;;7.05;;
64915;SDS011;51427;-27.442;153.014;2022-12-07T16:04:17;16.17;;;7.13;;
64915;SDS011;51427;-27.442;153.014;2022-12-07T16:06:44;12.68;;;6.40;;
64915;SDS011;51427;-27.442;153.014;2022-12-07T16:09:12;12.05;;;6.55;;
64915;SDS011;51427;-27.442;153.014;2022-12-07T16:11:39;16.17;;;6.30;;
64915;SDS011;51427;-27.442;153.014;2022-12-07T16:14:06;12.23;;;6.35;;
64915;SDS011;51427;-27.442;153.014;2022-12-07T16:16:34;12.40;;;6.43;;
64915;SDS011;51427;-27.442;153.014;2022-12-07T16:19:02;14.38;;;6.65;;
64915;SDS011;51427;-27.442;153.014;2022-12-07T16:21:29;11.45;;;5.78;;
64915;SDS011;51427;-27.442;153.014;2022-12-07T16:23:57;10.30;;;6.15;;
64915;SDS011;51427;-27.442;153.014;2022-12-07T16:26:25;10.90;;;6.22;;
64915;SDS011;51427;-27.442;153.014;2022-12-07T16:28:53;14.70;;;6.13;;
64915;SDS011;51427;-27.442;153.014;2022-12-07T16:31:21;11.93;;;5.68;;
64915;SDS011;51427;-27.442;153.014;2022-12-07T16:33:52;12.23;;;5.53;;